Terminal Aerodrome Forecast
Issued by NWS Cleveland, OH

Home | Current Version | Previous Version | Text Only | Print | Product List | Glossary Off
Versions: 1 2 3 4 5 6 7 8 9 10 11 12

640
FTUS41 KCLE 170538
TAFERI
TAF
KERI 170538Z 1706/1806 13005KT P6SM SKC
     FM171800 01006KT P6SM SCT040=

USA.gov is the U.S. government's official web portal to all federal, state and local government web resources and services.